createdAt,value
2023-01-01T00:02:05.947Z,76.80
2023-01-01T00:04:34.374Z,77.00
2023-01-01T00:07:01.506Z,77.70
2023-01-01T00:09:46.951Z,77.90
2023-01-01T00:12:13.633Z,77.90
2023-01-01T00:14:42.884Z,77.30
2023-01-01T00:17:10.065Z,77.20
2023-01-01T00:19:36.822Z,77.30
2023-01-01T00:22:27.920Z,77.30
2023-01-01T00:24:50.283Z,77.50
2023-01-01T00:27:16.985Z,76.80
2023-01-01T00:29:43.691Z,77.30
2023-01-01T00:32:14.333Z,77.60
2023-01-01T00:34:44.318Z,77.60
2023-01-01T00:37:11.579Z,77.30
2023-01-01T00:39:38.383Z,77.30
2023-01-01T00:42:05.372Z,77.30
2023-01-01T00:44:32.287Z,77.60
2023-01-01T00:46:59.053Z,77.50
2023-01-01T00:49:25.722Z,77.80
2023-01-01T00:51:52.386Z,78.00
2023-01-01T00:54:19.044Z,77.70
2023-01-01T00:56:45.857Z,77.20
2023-01-01T00:59:12.818Z,77.40
2023-01-01T01:01:41.033Z,77.80
2023-01-01T01:04:09.335Z,77.90
2023-01-01T01:06:36.559Z,77.50
2023-01-01T01:09:04.490Z,77.30
2023-01-01T01:11:31.230Z,77.50
2023-01-01T01:13:57.962Z,78.10
2023-01-01T01:16:31.394Z,78.10
2023-01-01T01:19:00.246Z,78.10
2023-01-01T01:21:28.784Z,78.10
2023-01-01T01:23:58.900Z,77.90
2023-01-01T01:26:28.068Z,77.50
2023-01-01T01:28:54.815Z,77.70
2023-01-01T01:31:23.838Z,77.70
2023-01-01T01:33:50.856Z,78.00
2023-01-01T01:36:18.704Z,77.80
2023-01-01T01:38:45.926Z,77.70
2023-01-01T01:41:26.766Z,77.80
2023-01-01T01:44:00.407Z,76.80
2023-01-01T01:46:37.416Z,77.60
2023-01-01T01:49:32.113Z,77.70
2023-01-01T01:52:01.488Z,77.60
2023-01-01T01:54:29.617Z,77.20
2023-01-01T01:57:02.809Z,76.90
2023-01-01T01:59:33.545Z,77.40
2023-01-01T02:02:01.664Z,77.90
2023-01-01T02:04:28.693Z,77.80
2023-01-01T02:06:56.041Z,77.90
2023-01-01T02:09:23.164Z,77.60
2023-01-01T02:11:50.338Z,77.70
2023-01-01T02:14:17.112Z,77.70
2023-01-01T02:16:49.568Z,77.70
2023-01-01T02:19:34.507Z,77.60
2023-01-01T02:22:26.031Z,77.10
2023-01-01T02:24:59.734Z,77.50
2023-01-01T02:27:31.559Z,77.50
2023-01-01T02:30:02.016Z,77.70
2023-01-01T02:32:42.838Z,77.80
2023-01-01T02:35:35.834Z,77.70
2023-01-01T02:38:22.693Z,77.90
2023-01-01T02:40:56.725Z,77.80
2023-01-01T02:43:25.222Z,77.60
2023-01-01T02:45:53.930Z,77.90
2023-01-01T02:48:42.795Z,77.80
2023-01-01T02:51:51.301Z,77.50
2023-01-01T02:54:18.044Z,77.70
2023-01-01T02:56:47.510Z,77.70
2023-01-01T02:59:32.837Z,77.20
2023-01-01T03:02:11.408Z,76.90
2023-01-01T03:05:05.001Z,76.30
2023-01-01T03:07:54.604Z,76.00
2023-01-01T03:10:42.298Z,76.20
2023-01-01T03:13:44.594Z,76.50
2023-01-01T03:16:39.354Z,76.90
2023-01-01T03:19:15.982Z,76.60
2023-01-01T03:21:44.253Z,76.30
2023-01-01T03:24:17.498Z,75.80
2023-01-01T03:26:47.959Z,75.70
2023-01-01T03:29:15.489Z,75.70
2023-01-01T03:31:46.115Z,75.70
2023-01-01T03:34:19.581Z,75.60
2023-01-01T03:36:55.185Z,75.90
2023-01-01T03:39:34.689Z,76.30
2023-01-01T03:42:25.259Z,76.00
2023-01-01T03:45:17.203Z,76.60
2023-01-01T03:47:44.036Z,76.80
2023-01-01T03:50:11.746Z,76.60
2023-01-01T03:53:07.900Z,76.60
2023-01-01T03:55:44.134Z,76.10
2023-01-01T03:58:21.134Z,76.10
2023-01-01T04:00:55.372Z,76.90
2023-01-01T04:03:28.503Z,76.90
2023-01-01T04:05:55.351Z,76.60
2023-01-01T04:08:22.330Z,76.70
2023-01-01T04:10:56.938Z,77.00
2023-01-01T04:13:23.762Z,76.40
2023-01-01T04:15:50.639Z,76.10
2023-01-01T04:18:17.349Z,76.60
2023-01-01T04:20:44.038Z,76.70
2023-01-01T04:23:10.711Z,76.30
2023-01-01T04:25:37.374Z,76.60
2023-01-01T04:28:04.234Z,76.20
2023-01-01T04:30:30.902Z,76.60
2023-01-01T04:32:57.607Z,76.70
2023-01-01T04:35:24.318Z,76.50
2023-01-01T04:37:50.977Z,76.50
2023-01-01T04:40:18.035Z,76.10
2023-01-01T04:42:44.747Z,76.50
2023-01-01T04:45:15.270Z,77.20
2023-01-01T04:47:42.584Z,77.70
2023-01-01T04:50:10.101Z,76.90
2023-01-01T04:52:37.161Z,77.30
2023-01-01T04:55:04.215Z,77.20
2023-01-01T04:57:31.472Z,77.10
2023-01-01T04:59:58.248Z,76.90
2023-01-01T05:02:25.647Z,76.90
2023-01-01T05:04:52.474Z,78.00
2023-01-01T05:07:19.650Z,77.60
2023-01-01T05:09:46.312Z,77.90
2023-01-01T05:12:12.996Z,77.60
2023-01-01T05:14:39.876Z,77.50
2023-01-01T05:17:06.578Z,77.40
2023-01-01T05:19:33.288Z,77.40
2023-01-01T05:22:03.960Z,77.60
2023-01-01T05:24:36.366Z,77.80
2023-01-01T05:27:03.154Z,77.90
2023-01-01T05:29:29.806Z,77.60
2023-01-01T05:31:56.522Z,77.80
2023-01-01T05:34:23.398Z,78.10
2023-01-01T05:36:50.085Z,77.50
2023-01-01T05:39:16.778Z,77.50
2023-01-01T05:41:43.469Z,77.40
2023-01-01T05:44:11.512Z,77.30
2023-01-01T05:46:38.272Z,77.10
2023-01-01T05:49:05.008Z,77.00
2023-01-01T05:53:58.222Z,77.40
2023-01-01T05:56:26.019Z,77.30
2023-01-01T05:58:52.862Z,77.20
2023-01-01T06:01:25.065Z,77.70
2023-01-01T06:03:52.811Z,77.30
2023-01-01T06:06:28.745Z,77.00
2023-01-01T06:08:58.298Z,78.50
2023-01-01T06:11:25.710Z,77.70
2023-01-01T06:13:54.211Z,76.90
2023-01-01T06:16:21.357Z,78.10
2023-01-01T06:18:48.417Z,79.60
2023-01-01T06:21:17.712Z,78.50
2023-01-01T06:23:44.893Z,77.40
2023-01-01T06:26:13.050Z,77.40
2023-01-01T06:28:40.539Z,77.10
2023-01-01T06:31:09.056Z,77.40
2023-01-01T06:33:36.562Z,76.80
2023-01-01T06:36:06.862Z,76.20
2023-01-01T06:38:38.725Z,76.60
2023-01-01T06:41:11.836Z,76.80
2023-01-01T06:43:38.646Z,76.00
2023-01-01T06:46:06.789Z,76.10
2023-01-01T06:48:35.801Z,79.70
2023-01-01T06:51:11.243Z,78.70
2023-01-01T06:53:38.279Z,77.90
2023-01-01T06:56:05.760Z,77.10
2023-01-01T06:58:32.690Z,76.50
2023-01-01T07:01:21.264Z,76.20
2023-01-01T07:04:15.133Z,76.60
2023-01-01T07:06:42.530Z,77.00
2023-01-01T07:09:09.541Z,77.20
2023-01-01T07:11:36.738Z,78.30
2023-01-01T07:14:03.849Z,78.30
2023-01-01T07:16:30.703Z,77.10
2023-01-01T07:18:57.555Z,77.10
2023-01-01T07:21:37.254Z,77.50
2023-01-01T07:24:05.783Z,76.90
2023-01-01T07:26:33.665Z,77.30
2023-01-01T07:29:06.853Z,77.20
2023-01-01T07:31:39.610Z,77.60
2023-01-01T07:34:07.709Z,77.50
2023-01-01T07:36:34.414Z,77.90
2023-01-01T07:39:01.349Z,77.80
2023-01-01T07:41:28.133Z,77.00
2023-01-01T07:43:54.925Z,77.20
2023-01-01T07:46:21.939Z,77.80
2023-01-01T07:48:48.793Z,77.30
2023-01-01T07:51:15.491Z,76.90
2023-01-01T07:53:42.269Z,76.80
2023-01-01T07:56:09.179Z,76.10
2023-01-01T07:58:39.580Z,76.30
2023-01-01T08:01:11.070Z,76.70
2023-01-01T08:03:37.847Z,76.40
2023-01-01T08:06:12.907Z,76.20
2023-01-01T08:08:40.150Z,75.80
2023-01-01T08:11:07.076Z,75.00
2023-01-01T08:13:33.796Z,75.20
2023-01-01T08:16:00.588Z,74.80
2023-01-01T08:18:27.464Z,74.90
2023-01-01T08:20:54.357Z,74.90
2023-01-01T08:23:21.147Z,74.70
2023-01-01T08:25:47.854Z,74.20
2023-01-01T08:28:14.577Z,73.90
2023-01-01T08:30:41.413Z,73.60
2023-01-01T08:33:08.077Z,73.40
2023-01-01T08:35:37.770Z,73.20
2023-01-01T08:38:04.459Z,73.00
2023-01-01T08:40:31.171Z,72.70
2023-01-01T08:42:57.883Z,72.40
2023-01-01T08:45:24.554Z,71.90
2023-01-01T08:47:51.251Z,71.40
2023-01-01T08:50:17.934Z,71.60
2023-01-01T08:52:44.627Z,71.30
2023-01-01T08:55:11.333Z,71.10
2023-01-01T08:57:38.025Z,70.80
2023-01-01T09:00:05.778Z,70.90
2023-01-01T09:02:32.619Z,70.90
2023-01-01T09:04:59.487Z,70.50
2023-01-01T09:07:26.182Z,69.40
2023-01-01T09:09:52.839Z,69.50
2023-01-01T09:12:19.539Z,69.00
2023-01-01T09:14:49.305Z,68.50
2023-01-01T09:17:16.133Z,68.20
2023-01-01T09:19:42.857Z,67.80
2023-01-01T09:22:12.901Z,67.80
2023-01-01T09:24:39.588Z,67.80
2023-01-01T09:27:06.274Z,68.00
2023-01-01T09:29:32.979Z,68.00
2023-01-01T09:31:59.741Z,67.90
2023-01-01T09:34:26.515Z,67.70
2023-01-01T09:36:53.190Z,66.10
2023-01-01T09:39:19.854Z,65.40
2023-01-01T09:41:57.533Z,65.10
2023-01-01T09:44:49.442Z,65.00
2023-01-01T09:47:30.833Z,64.90
2023-01-01T09:50:03.274Z,64.80
2023-01-01T09:52:39.738Z,65.00
2023-01-01T09:55:17.989Z,65.50
2023-01-01T09:57:44.777Z,65.60
2023-01-01T10:00:19.764Z,65.50
2023-01-01T10:02:58.696Z,65.10
2023-01-01T10:05:43.653Z,64.70
2023-01-01T10:08:23.488Z,63.90
2023-01-01T10:11:14.858Z,63.20
2023-01-01T10:13:43.729Z,62.20
2023-01-01T10:16:32.756Z,61.90
2023-01-01T10:19:07.333Z,61.00
2023-01-01T10:21:46.541Z,60.10
2023-01-01T10:24:48.443Z,59.40
2023-01-01T10:27:39.971Z,58.90
2023-01-01T10:30:16.726Z,58.40
2023-01-01T10:32:44.725Z,58.40
2023-01-01T10:35:14.930Z,57.80
2023-01-01T10:37:42.243Z,57.40
2023-01-01T10:40:18.701Z,56.20
2023-01-01T10:42:54.084Z,55.80
2023-01-01T10:45:34.098Z,55.20
2023-01-01T10:48:20.366Z,54.80
2023-01-01T10:50:51.664Z,53.70
2023-01-01T10:53:26.201Z,53.60
2023-01-01T10:56:12.420Z,54.00
2023-01-01T10:58:56.463Z,54.20
2023-01-01T11:01:28.661Z,54.10
2023-01-01T11:04:02.626Z,53.90
2023-01-01T11:06:40.845Z,53.50
2023-01-01T11:09:23.904Z,54.20
2023-01-01T11:12:02.077Z,54.40
2023-01-01T11:14:56.144Z,54.10
2023-01-01T11:17:25.381Z,51.90
2023-01-01T11:19:58.133Z,53.80
2023-01-01T11:22:35.861Z,54.00
2023-01-01T11:25:15.574Z,53.00
2023-01-01T11:27:42.337Z,52.20
2023-01-01T11:30:28.976Z,51.60
2023-01-01T11:33:02.625Z,52.30
2023-01-01T11:35:46.095Z,52.30
2023-01-01T11:38:21.988Z,51.90
2023-01-01T11:40:55.059Z,51.20
2023-01-01T11:43:24.792Z,52.80
2023-01-01T11:45:53.194Z,51.60
2023-01-01T11:48:29.596Z,52.30
2023-01-01T11:50:58.100Z,50.70
2023-01-01T11:53:24.725Z,49.90
2023-01-01T11:56:14.107Z,49.10
2023-01-01T11:58:51.757Z,48.70
2023-01-01T12:01:26.748Z,48.40
2023-01-01T12:04:28.700Z,48.80
2023-01-01T12:07:06.427Z,49.00
2023-01-01T12:09:54.502Z,48.60
2023-01-01T12:12:55.378Z,48.70
2023-01-01T12:15:45.791Z,48.30
2023-01-01T12:18:27.535Z,49.00
2023-01-01T12:21:20.600Z,49.10
2023-01-01T12:23:47.382Z,47.90
2023-01-01T12:26:29.368Z,47.60
2023-01-01T12:29:19.934Z,48.30
2023-01-01T12:32:07.027Z,48.00
2023-01-01T12:34:49.952Z,48.50
2023-01-01T12:37:53.481Z,47.40
2023-01-01T12:40:29.489Z,47.30
2023-01-01T12:43:03.630Z,46.30
2023-01-01T12:46:07.286Z,47.20
2023-01-01T12:48:53.511Z,47.50
2023-01-01T12:52:07.805Z,46.70
2023-01-01T12:55:02.672Z,46.60
2023-01-01T12:57:46.917Z,45.90
2023-01-01T13:00:16.539Z,46.60
2023-01-01T13:02:58.274Z,47.20
2023-01-01T13:05:43.667Z,46.90
2023-01-01T13:08:10.382Z,46.30
2023-01-01T13:10:39.837Z,45.30
2023-01-01T13:13:06.648Z,44.50
2023-01-01T13:15:39.489Z,43.70
2023-01-01T13:18:14.935Z,42.60
2023-01-01T13:20:53.712Z,40.90
2023-01-01T13:23:33.284Z,38.90
2023-01-01T13:26:18.431Z,37.00
2023-01-01T13:29:05.463Z,36.00
2023-01-01T13:31:38.488Z,34.70
2023-01-01T13:34:30.314Z,33.20
2023-01-01T13:37:13.770Z,33.30
2023-01-01T13:40:03.664Z,34.20
2023-01-01T13:43:09.324Z,35.00
2023-01-01T13:48:32.960Z,34.60
2023-01-01T13:52:04.775Z,33.70
2023-01-01T13:54:52.868Z,32.60
2023-01-01T13:57:56.552Z,31.60
2023-01-01T14:00:34.387Z,31.00
2023-01-01T14:03:06.354Z,29.10
2023-01-01T14:05:49.765Z,28.40
2023-01-01T14:08:32.460Z,27.70
2023-01-01T14:11:03.158Z,27.70
2023-01-01T14:13:39.205Z,27.30
2023-01-01T14:16:10.796Z,27.30
2023-01-01T14:18:49.752Z,26.90
2023-01-01T14:21:22.465Z,26.70
2023-01-01T14:23:53.396Z,26.70
2023-01-01T14:26:22.913Z,26.50
2023-01-01T14:28:54.478Z,26.10
2023-01-01T14:31:24.453Z,26.10
2023-01-01T14:33:51.143Z,26.00
2023-01-01T14:36:22.563Z,26.00
2023-01-01T14:38:51.741Z,26.00
2023-01-01T14:41:48.286Z,26.80
2023-01-01T14:44:17.491Z,27.30
2023-01-01T14:46:47.001Z,28.00
2023-01-01T14:49:22.201Z,29.60
2023-01-01T14:51:56.891Z,31.30
2023-01-01T14:54:30.136Z,32.50
2023-01-01T14:56:56.888Z,33.70
2023-01-01T14:59:32.377Z,34.60
2023-01-01T15:02:30.209Z,35.00
2023-01-01T15:04:58.195Z,35.20
2023-01-01T15:07:30.411Z,35.90
2023-01-01T15:10:03.561Z,38.20
2023-01-01T15:12:33.895Z,39.80
2023-01-01T15:15:01.633Z,41.10
2023-01-01T15:17:28.465Z,42.90
2023-01-01T15:20:03.491Z,44.90
2023-01-01T15:22:35.778Z,46.60
2023-01-01T15:25:02.820Z,48.90
2023-01-01T15:27:35.402Z,50.50
2023-01-01T15:30:05.874Z,51.90
2023-01-01T15:32:38.596Z,53.60
2023-01-01T15:35:17.923Z,55.50
2023-01-01T15:37:49.637Z,56.50
2023-01-01T15:40:16.236Z,57.70
2023-01-01T15:42:48.770Z,58.20
2023-01-01T15:45:31.747Z,58.60
2023-01-01T15:48:10.635Z,59.40
2023-01-01T15:50:57.803Z,60.30
2023-01-01T15:53:27.503Z,61.80
2023-01-01T15:56:03.591Z,62.00
2023-01-01T15:58:33.260Z,62.50
2023-01-01T16:01:03.768Z,63.30
2023-01-01T16:03:32.167Z,62.90
2023-01-01T16:05:59.380Z,63.00
2023-01-01T16:08:26.183Z,62.80
2023-01-01T16:10:53.216Z,63.50
2023-01-01T16:13:20.174Z,64.90
2023-01-01T16:15:51.957Z,66.20
2023-01-01T16:18:19.154Z,66.40
2023-01-01T16:20:46.342Z,66.50
2023-01-01T16:23:13.209Z,66.30
2023-01-01T16:25:40.107Z,66.90
2023-01-01T16:28:06.861Z,67.00
2023-01-01T16:30:33.564Z,67.40
2023-01-01T16:33:00.700Z,67.30
2023-01-01T16:35:27.484Z,66.70
2023-01-01T16:37:54.140Z,67.00
2023-01-01T16:40:20.853Z,67.70
2023-01-01T16:42:47.522Z,67.30
2023-01-01T16:45:21.069Z,67.40
2023-01-01T16:47:47.971Z,67.40
2023-01-01T16:50:14.856Z,67.30
2023-01-01T16:52:45.017Z,67.40
2023-01-01T16:55:12.831Z,68.20
2023-01-01T16:57:40.158Z,68.40
2023-01-01T17:00:09.038Z,68.40
2023-01-01T17:02:36.325Z,68.80
2023-01-01T17:05:03.306Z,68.70
2023-01-01T17:07:29.983Z,69.10
2023-01-01T17:09:56.638Z,69.10
2023-01-01T17:12:23.311Z,68.70
2023-01-01T17:14:49.963Z,69.10
2023-01-01T17:17:16.643Z,68.80
2023-01-01T17:19:43.375Z,68.90
2023-01-01T17:22:10.125Z,69.10
2023-01-01T17:24:36.770Z,69.10
2023-01-01T17:27:03.558Z,69.00
2023-01-01T17:29:30.229Z,69.00
2023-01-01T17:31:56.918Z,68.80
2023-01-01T17:34:23.642Z,69.60
2023-01-01T17:36:50.379Z,69.80
2023-01-01T17:39:17.022Z,70.50
2023-01-01T17:41:44.726Z,70.10
2023-01-01T17:44:11.616Z,69.70
2023-01-01T17:46:38.578Z,69.90
2023-01-01T17:49:06.215Z,70.50
2023-01-01T17:51:32.906Z,70.50
2023-01-01T17:54:00.414Z,71.00
2023-01-01T17:56:27.158Z,70.80
2023-01-01T17:58:54.195Z,70.40
2023-01-01T18:01:24.399Z,69.30
2023-01-01T18:03:56.302Z,70.50
2023-01-01T18:06:23.227Z,70.80
2023-01-01T18:08:55.482Z,70.70
2023-01-01T18:11:22.733Z,70.60
2023-01-01T18:13:49.511Z,70.90
2023-01-01T18:16:16.405Z,70.40
2023-01-01T18:18:43.218Z,70.40
2023-01-01T18:21:20.740Z,70.30
2023-01-01T18:23:48.742Z,71.90
2023-01-01T18:26:15.501Z,71.60
2023-01-01T18:28:43.011Z,71.80
2023-01-01T18:31:16.885Z,72.80
2023-01-01T18:33:44.267Z,73.80
2023-01-01T18:36:17.388Z,72.50
2023-01-01T18:38:48.435Z,71.80
2023-01-01T18:41:20.992Z,72.00
2023-01-01T18:43:47.573Z,73.50
2023-01-01T18:46:14.305Z,73.10
2023-01-01T18:48:42.675Z,73.20
2023-01-01T18:51:22.670Z,72.50
2023-01-01T18:53:51.637Z,72.80
2023-01-01T18:56:20.484Z,72.50
2023-01-01T18:58:49.299Z,72.60
2023-01-01T19:01:21.591Z,72.60
2023-01-01T19:03:51.621Z,72.40
2023-01-01T19:06:32.578Z,72.10
2023-01-01T19:09:21.553Z,72.70
2023-01-01T19:11:49.475Z,72.60
2023-01-01T19:14:22.779Z,72.70
2023-01-01T19:16:51.761Z,72.10
2023-01-01T19:19:21.467Z,72.10
2023-01-01T19:21:52.119Z,71.90
2023-01-01T19:24:23.617Z,71.90
2023-01-01T19:26:59.919Z,72.40
2023-01-01T19:29:30.427Z,71.80
2023-01-01T19:31:58.440Z,72.70
2023-01-01T19:34:25.623Z,72.80
2023-01-01T19:36:52.658Z,72.60
2023-01-01T19:39:19.750Z,72.60
2023-01-01T19:41:47.107Z,73.00
2023-01-01T19:44:13.976Z,73.20
2023-01-01T19:46:41.493Z,72.50
2023-01-01T19:49:08.320Z,72.30
2023-01-01T19:51:35.091Z,74.10
2023-01-01T19:54:01.791Z,73.30
2023-01-01T19:56:28.532Z,73.00
2023-01-01T19:58:55.199Z,73.30
2023-01-01T20:01:22.054Z,73.90
2023-01-01T20:03:55.404Z,73.70
2023-01-01T20:06:23.701Z,73.40
2023-01-01T20:08:50.647Z,74.10
2023-01-01T20:11:17.552Z,74.20
2023-01-01T20:13:44.211Z,73.30
2023-01-01T20:16:11.045Z,73.80
2023-01-01T20:18:37.777Z,74.10
2023-01-01T20:21:26.302Z,73.90
2023-01-01T20:23:54.222Z,74.00
2023-01-01T20:26:21.054Z,73.80
2023-01-01T20:29:06.565Z,72.80
2023-01-01T20:31:33.330Z,73.20
2023-01-01T20:34:00.010Z,73.80
2023-01-01T20:36:45.432Z,75.20
2023-01-01T20:39:12.545Z,76.70
2023-01-01T20:41:39.259Z,77.50
2023-01-01T20:44:05.959Z,78.10
2023-01-01T20:46:33.358Z,78.70
2023-01-01T20:49:00.101Z,77.50
2023-01-01T20:51:27.070Z,77.30
2023-01-01T20:53:53.768Z,76.50
2023-01-01T20:56:20.434Z,75.30
2023-01-01T20:58:50.214Z,74.50
2023-01-01T21:01:20.079Z,75.30
2023-01-01T21:03:46.889Z,75.40
2023-01-01T21:06:16.051Z,75.70
2023-01-01T21:08:47.874Z,74.60
2023-01-01T21:11:15.469Z,74.40
2023-01-01T21:13:44.622Z,74.40
2023-01-01T21:16:19.792Z,74.50
2023-01-01T21:18:48.159Z,74.20
2023-01-01T21:21:19.778Z,74.70
2023-01-01T21:23:47.206Z,74.40
2023-01-01T21:26:39.617Z,74.20
2023-01-01T21:29:14.033Z,74.30
2023-01-01T21:31:42.898Z,74.50
2023-01-01T21:34:37.840Z,73.90
2023-01-01T21:37:49.886Z,73.70
2023-01-01T21:40:28.524Z,74.40
2023-01-01T21:43:32.312Z,75.40
2023-01-01T21:46:08.079Z,75.20
2023-01-01T21:48:39.411Z,75.00
2023-01-01T21:51:21.005Z,74.60
2023-01-01T21:53:47.819Z,74.50
2023-01-01T21:56:23.593Z,74.30
2023-01-01T21:59:09.061Z,74.30
2023-01-01T22:01:38.321Z,73.50
2023-01-01T22:04:11.221Z,74.20
2023-01-01T22:06:46.284Z,74.00
2023-01-01T22:09:26.694Z,74.50
2023-01-01T22:11:59.090Z,74.10
2023-01-01T22:14:39.048Z,74.10
2023-01-01T22:17:29.642Z,73.60
2023-01-01T22:20:19.566Z,74.20
2023-01-01T22:22:46.251Z,75.40
2023-01-01T22:25:26.864Z,75.60
2023-01-01T22:27:54.081Z,75.70
2023-01-01T22:30:20.688Z,75.10
2023-01-01T22:32:54.097Z,75.20
2023-01-01T22:35:27.819Z,75.10
2023-01-01T22:37:56.797Z,74.30
2023-01-01T22:40:28.984Z,75.00
2023-01-01T22:43:00.577Z,75.20
2023-01-01T22:45:27.590Z,75.40
2023-01-01T22:47:54.803Z,75.40
2023-01-01T22:50:27.248Z,75.40
2023-01-01T22:52:53.904Z,76.10
2023-01-01T22:55:20.642Z,75.30
2023-01-01T22:57:47.481Z,76.10
2023-01-01T23:00:17.122Z,75.70
2023-01-01T23:02:44.724Z,75.50
2023-01-01T23:05:12.497Z,75.00
2023-01-01T23:07:42.096Z,75.80
2023-01-01T23:10:12.131Z,75.30
2023-01-01T23:12:39.051Z,75.10
2023-01-01T23:15:25.127Z,75.30
2023-01-01T23:17:51.926Z,75.80
2023-01-01T23:20:18.750Z,75.60
2023-01-01T23:22:49.601Z,76.10
2023-01-01T23:25:19.576Z,76.00
2023-01-01T23:27:47.201Z,75.70
2023-01-01T23:30:14.238Z,74.80
2023-01-01T23:32:42.217Z,74.90
2023-01-01T23:35:09.725Z,75.00
2023-01-01T23:37:37.095Z,74.60
2023-01-01T23:40:04.183Z,74.70
2023-01-01T23:42:30.836Z,74.80
2023-01-01T23:44:57.494Z,75.00
2023-01-01T23:47:24.223Z,75.70
2023-01-01T23:49:50.931Z,75.00
2023-01-01T23:52:17.593Z,75.90
2023-01-01T23:54:44.240Z,75.40
2023-01-01T23:57:10.884Z,74.60
2023-01-01T23:59:37.543Z,75.20
